EVA145 RKSI-RCKH
Flight info
| Callsign | EVA145 |
|---|---|
| Flight time | 2h 34m |
| Altitude | 34000 |
| Route | BOPTA Z51 BEDES Y711 MUGUS Y742 SALMI B576 APU A1 PIDGY T13 LUGIA |
| Aircraft | A321/M-SDE3FGHIRWY/LB1 |
Departure
| Time | 2026-04-26 13:16 |
|---|---|
| Airport | Incheon International Airport (RKSI) |
Arrival
| Time | 2026-04-26 15:51 |
|---|---|
| Airport | Kaohsiung International Airport (RCKH) |
| Time | Latitude | Longitude | Altitude | Speed | Heading |
|---|---|---|---|---|---|
| 2026-04-26 12:52 | 37.45094 | 126.44531 | 29 ft | 0 kts | 140° |
| 2026-04-26 13:06 | 37.45103 | 126.44521 | 29 ft | 2 kts | 140° |
| 2026-04-26 13:06 | 37.45115 | 126.44508 | 29 ft | 2 kts | 140° |
| 2026-04-26 13:06 | 37.45126 | 126.44496 | 29 ft | 2 kts | 140° |
| 2026-04-26 13:06 | 37.45138 | 126.44484 | 29 ft | 2 kts | 140° |
| 2026-04-26 13:07 | 37.45151 | 126.44475 | 29 ft | 2 kts | 163° |
| 2026-04-26 13:07 | 37.45166 | 126.44471 | 29 ft | 2 kts | 180° |
| 2026-04-26 13:07 | 37.45181 | 126.44474 | 29 ft | 2 kts | 199° |
| 2026-04-26 13:07 | 37.45194 | 126.44482 | 29 ft | 2 kts | 217° |
| 2026-04-26 13:08 | 37.45203 | 126.44492 | 29 ft | 0 kts | 232° |
| 2026-04-26 13:08 | 37.45206 | 126.44500 | 29 ft | 0 kts | 234° |
| 2026-04-26 13:09 | 37.45206 | 126.44499 | 29 ft | 0 kts | 234° |
| 2026-04-26 13:10 | 37.45205 | 126.44497 | 29 ft | 1 kts | 234° |
| 2026-04-26 13:11 | 37.45197 | 126.44482 | 29 ft | 3 kts | 234° |
| 2026-04-26 13:11 | 37.45181 | 126.44453 | 29 ft | 4 kts | 234° |
| 2026-04-26 13:11 | 37.45153 | 126.44405 | 29 ft | 8 kts | 234° |
| 2026-04-26 13:11 | 37.45119 | 126.44344 | 29 ft | 8 kts | 234° |
| 2026-04-26 13:12 | 37.45081 | 126.44277 | 29 ft | 9 kts | 234° |
| 2026-04-26 13:12 | 37.45041 | 126.44207 | 29 ft | 10 kts | 234° |
| 2026-04-26 13:12 | 37.44999 | 126.44132 | 29 ft | 10 kts | 234° |
| 2026-04-26 13:12 | 37.44942 | 126.44073 | 29 ft | 11 kts | 186° |
| 2026-04-26 13:13 | 37.44874 | 126.44115 | 29 ft | 11 kts | 143° |
| 2026-04-26 13:13 | 37.44805 | 126.44176 | 29 ft | 12 kts | 144° |
| 2026-04-26 13:13 | 37.44735 | 126.44239 | 29 ft | 12 kts | 144° |
| 2026-04-26 13:13 | 37.44662 | 126.44303 | 29 ft | 13 kts | 146° |
| 2026-04-26 13:14 | 37.44585 | 126.44368 | 29 ft | 13 kts | 145° |
| 2026-04-26 13:14 | 37.44531 | 126.44409 | 29 ft | 8 kts | 169° |
| 2026-04-26 13:14 | 37.44478 | 126.44376 | 29 ft | 9 kts | 228° |
| 2026-04-26 13:14 | 37.44437 | 126.44308 | 29 ft | 10 kts | 235° |
| 2026-04-26 13:15 | 37.44396 | 126.44234 | 29 ft | 10 kts | 234° |
| 2026-04-26 13:15 | 37.44379 | 126.44154 | 29 ft | 9 kts | 291° |
| 2026-04-26 13:15 | 37.44426 | 126.44092 | 29 ft | 10 kts | 323° |
| 2026-04-26 13:15 | 37.44443 | 126.44076 | 29 ft | 2 kts | 324° |
| 2026-04-26 13:16 | 37.44760 | 126.43796 | 29 ft | 88 kts | 325° |
| 2026-04-26 13:16 | 37.45442 | 126.43185 | 29 ft | 149 kts | 325° |
| 2026-04-26 13:16 | 37.46409 | 126.42327 | 203 ft | 182 kts | 326° |
| 2026-04-26 13:16 | 37.47442 | 126.41387 | 859 ft | 183 kts | 323° |
| 2026-04-26 13:17 | 37.49031 | 126.39068 | 2333 ft | 177 kts | 309° |
| 2026-04-26 13:17 | 37.49772 | 126.37839 | 2913 ft | 178 kts | 310° |
| 2026-04-26 13:18 | 37.50506 | 126.34731 | 3721 ft | 208 kts | 275° |
| 2026-04-26 13:18 | 37.50533 | 126.32826 | 4068 ft | 226 kts | 273° |
| 2026-04-26 13:18 | 37.50582 | 126.28593 | 5145 ft | 248 kts | 274° |
| 2026-04-26 13:19 | 37.50624 | 126.26368 | 5576 ft | 264 kts | 274° |
| 2026-04-26 13:19 | 37.50676 | 126.24031 | 6202 ft | 271 kts | 274° |
| 2026-04-26 13:19 | 37.50724 | 126.21660 | 7002 ft | 271 kts | 272° |
| 2026-04-26 13:19 | 37.50340 | 126.19325 | 7735 ft | 279 kts | 245° |
| 2026-04-26 13:20 | 37.49079 | 126.17480 | 8473 ft | 287 kts | 216° |
| 2026-04-26 13:20 | 37.47250 | 126.16420 | 9243 ft | 291 kts | 203° |
| 2026-04-26 13:20 | 37.45359 | 126.15576 | 9954 ft | 293 kts | 202° |
| 2026-04-26 13:20 | 37.43411 | 126.14759 | 10526 ft | 301 kts | 197° |
| 2026-04-26 13:21 | 37.41260 | 126.14687 | 10785 ft | 326 kts | 170° |
| 2026-04-26 13:21 | 37.39818 | 126.15363 | 10963 ft | 341 kts | 152° |
| 2026-04-26 13:21 | 37.37432 | 126.18173 | 11434 ft | 361 kts | 132° |
| 2026-04-26 13:21 | 37.35821 | 126.20615 | 12021 ft | 365 kts | 131° |
| 2026-04-26 13:22 | 37.34204 | 126.23055 | 12607 ft | 368 kts | 132° |
| 2026-04-26 13:22 | 37.32527 | 126.25522 | 13160 ft | 372 kts | 133° |
| 2026-04-26 13:22 | 37.30821 | 126.27983 | 13696 ft | 376 kts | 134° |
| 2026-04-26 13:22 | 37.29073 | 126.30484 | 14230 ft | 380 kts | 134° |
| 2026-04-26 13:23 | 37.27333 | 126.32966 | 14746 ft | 384 kts | 134° |
| 2026-04-26 13:23 | 37.25537 | 126.35525 | 15262 ft | 388 kts | 134° |
| 2026-04-26 13:23 | 37.23766 | 126.38047 | 15756 ft | 392 kts | 134° |
| 2026-04-26 13:23 | 37.21950 | 126.40632 | 16247 ft | 396 kts | 134° |
| 2026-04-26 13:24 | 37.20011 | 126.43066 | 16711 ft | 396 kts | 144° |
| 2026-04-26 13:24 | 37.17738 | 126.44973 | 17181 ft | 393 kts | 157° |
| 2026-04-26 13:24 | 37.15214 | 126.46340 | 17674 ft | 391 kts | 165° |
| 2026-04-26 13:24 | 37.12691 | 126.47493 | 18137 ft | 394 kts | 166° |
| 2026-04-26 13:25 | 37.10081 | 126.48669 | 18597 ft | 397 kts | 165° |
| 2026-04-26 13:25 | 37.07498 | 126.49860 | 19066 ft | 400 kts | 165° |
| 2026-04-26 13:25 | 37.04886 | 126.51064 | 19560 ft | 400 kts | 166° |
| 2026-04-26 13:25 | 37.02258 | 126.52098 | 20033 ft | 400 kts | 170° |
| 2026-04-26 13:26 | 36.99546 | 126.53007 | 20496 ft | 401 kts | 170° |
| 2026-04-26 13:26 | 36.96843 | 126.53897 | 20942 ft | 403 kts | 170° |
| 2026-04-26 13:26 | 36.94142 | 126.54786 | 21369 ft | 405 kts | 170° |
| 2026-04-26 13:26 | 36.91403 | 126.55691 | 21780 ft | 408 kts | 170° |
| 2026-04-26 13:27 | 36.88673 | 126.56590 | 22161 ft | 411 kts | 171° |
| 2026-04-26 13:27 | 36.85893 | 126.57503 | 22528 ft | 415 kts | 171° |
| 2026-04-26 13:27 | 36.83079 | 126.58426 | 22904 ft | 418 kts | 171° |
| 2026-04-26 13:27 | 36.80263 | 126.59352 | 23282 ft | 420 kts | 171° |
| 2026-04-26 13:28 | 36.77452 | 126.60277 | 23660 ft | 423 kts | 171° |
| 2026-04-26 13:28 | 36.74606 | 126.61211 | 24021 ft | 425 kts | 171° |
| 2026-04-26 13:28 | 36.71748 | 126.62155 | 24378 ft | 428 kts | 171° |
| 2026-04-26 13:28 | 36.68881 | 126.63115 | 24742 ft | 430 kts | 171° |
| 2026-04-26 13:29 | 36.65993 | 126.64085 | 25080 ft | 433 kts | 171° |
| 2026-04-26 13:29 | 36.64070 | 126.64732 | 25297 ft | 435 kts | 171° |
| 2026-04-26 13:29 | 36.60161 | 126.66054 | 25741 ft | 437 kts | 172° |
| 2026-04-26 13:29 | 36.57225 | 126.67055 | 26072 ft | 439 kts | 172° |
| 2026-04-26 13:30 | 36.54269 | 126.68057 | 26380 ft | 441 kts | 172° |
| 2026-04-26 13:30 | 36.51313 | 126.69051 | 26675 ft | 443 kts | 172° |
| 2026-04-26 13:30 | 36.48319 | 126.70054 | 26979 ft | 445 kts | 172° |
| 2026-04-26 13:30 | 36.45358 | 126.71043 | 27268 ft | 447 kts | 172° |
| 2026-04-26 13:31 | 36.42341 | 126.72051 | 27537 ft | 449 kts | 172° |
| 2026-04-26 13:31 | 36.39308 | 126.73061 | 27821 ft | 451 kts | 172° |
| 2026-04-26 13:31 | 36.36288 | 126.74074 | 28096 ft | 453 kts | 172° |
| 2026-04-26 13:31 | 36.33239 | 126.75104 | 28359 ft | 455 kts | 172° |
| 2026-04-26 13:32 | 36.30196 | 126.76133 | 28655 ft | 455 kts | 172° |
| 2026-04-26 13:32 | 36.27132 | 126.77168 | 28930 ft | 457 kts | 172° |
| 2026-04-26 13:32 | 36.24077 | 126.78198 | 29238 ft | 457 kts | 173° |
| 2026-04-26 13:32 | 36.21002 | 126.79218 | 29597 ft | 454 kts | 174° |
| 2026-04-26 13:33 | 36.17950 | 126.80001 | 29945 ft | 448 kts | 179° |
| 2026-04-26 13:33 | 36.14867 | 126.80484 | 30260 ft | 443 kts | 184° |
| 2026-04-26 13:33 | 36.11807 | 126.80659 | 30545 ft | 438 kts | 188° |
| 2026-04-26 13:33 | 36.08787 | 126.80534 | 30835 ft | 433 kts | 193° |
| 2026-04-26 13:34 | 36.05801 | 126.80219 | 31145 ft | 431 kts | 194° |
| 2026-04-26 13:34 | 36.02814 | 126.79882 | 31477 ft | 430 kts | 194° |
| 2026-04-26 13:34 | 35.99838 | 126.79548 | 31814 ft | 429 kts | 194° |
| 2026-04-26 13:34 | 35.97882 | 126.79332 | 32011 ft | 428 kts | 194° |
| 2026-04-26 13:35 | 35.93944 | 126.78901 | 32379 ft | 428 kts | 194° |
| 2026-04-26 13:35 | 35.90982 | 126.78580 | 32601 ft | 429 kts | 194° |
| 2026-04-26 13:35 | 35.87974 | 126.78254 | 32817 ft | 430 kts | 194° |
| 2026-04-26 13:35 | 35.85009 | 126.77936 | 33048 ft | 430 kts | 194° |
| 2026-04-26 13:36 | 35.82050 | 126.77619 | 33268 ft | 431 kts | 194° |
| 2026-04-26 13:36 | 35.79037 | 126.77295 | 33478 ft | 432 kts | 194° |
| 2026-04-26 13:36 | 35.76045 | 126.76972 | 33671 ft | 433 kts | 194° |
| 2026-04-26 13:36 | 35.73077 | 126.76652 | 33872 ft | 433 kts | 194° |
| 2026-04-26 13:37 | 35.70073 | 126.76327 | 33996 ft | 435 kts | 194° |
| 2026-04-26 13:37 | 35.64041 | 126.75673 | 34005 ft | 439 kts | 194° |
| 2026-04-26 13:38 | 35.57922 | 126.75008 | 34007 ft | 448 kts | 194° |
| 2026-04-26 13:38 | 35.51670 | 126.74338 | 34008 ft | 451 kts | 194° |
| 2026-04-26 13:39 | 35.45438 | 126.73673 | 34008 ft | 452 kts | 194° |
| 2026-04-26 13:39 | 35.39181 | 126.73005 | 34010 ft | 452 kts | 194° |
| 2026-04-26 13:40 | 35.32935 | 126.72337 | 34009 ft | 452 kts | 194° |
| 2026-04-26 13:40 | 35.26704 | 126.71672 | 34010 ft | 453 kts | 194° |
| 2026-04-26 13:41 | 35.20449 | 126.71005 | 34012 ft | 453 kts | 194° |
| 2026-04-26 13:41 | 35.14194 | 126.70340 | 34011 ft | 453 kts | 194° |
| 2026-04-26 13:42 | 35.07904 | 126.69672 | 34011 ft | 452 kts | 194° |
| 2026-04-26 13:42 | 35.01672 | 126.69007 | 34012 ft | 452 kts | 194° |
| 2026-04-26 13:43 | 34.95412 | 126.68334 | 34011 ft | 453 kts | 193° |
| 2026-04-26 13:43 | 34.89142 | 126.67665 | 34011 ft | 454 kts | 192° |
| 2026-04-26 13:44 | 34.82764 | 126.67004 | 34011 ft | 454 kts | 192° |
| 2026-04-26 13:44 | 34.76472 | 126.66353 | 34011 ft | 454 kts | 192° |
| 2026-04-26 13:45 | 34.70212 | 126.65696 | 34011 ft | 455 kts | 192° |
| 2026-04-26 13:45 | 34.63914 | 126.65035 | 34012 ft | 455 kts | 192° |
| 2026-04-26 13:46 | 34.57610 | 126.64371 | 34011 ft | 454 kts | 192° |
| 2026-04-26 13:46 | 34.51326 | 126.63711 | 34012 ft | 455 kts | 192° |
| 2026-04-26 13:47 | 34.45046 | 126.63053 | 34011 ft | 454 kts | 192° |
| 2026-04-26 13:47 | 34.38730 | 126.62393 | 34012 ft | 454 kts | 192° |
| 2026-04-26 13:48 | 34.32468 | 126.61740 | 34013 ft | 455 kts | 192° |
| 2026-04-26 13:48 | 34.26185 | 126.61085 | 34012 ft | 454 kts | 192° |
| 2026-04-26 13:49 | 34.19903 | 126.60430 | 34012 ft | 455 kts | 192° |
| 2026-04-26 13:49 | 34.13599 | 126.59773 | 34011 ft | 455 kts | 192° |
| 2026-04-26 13:50 | 34.07340 | 126.59121 | 34011 ft | 454 kts | 192° |
| 2026-04-26 13:50 | 34.01036 | 126.58464 | 34011 ft | 454 kts | 192° |
| 2026-04-26 13:51 | 33.94730 | 126.57809 | 34011 ft | 455 kts | 192° |
| 2026-04-26 13:51 | 33.88471 | 126.57036 | 34011 ft | 452 kts | 195° |
| 2026-04-26 13:52 | 33.82373 | 126.55595 | 34013 ft | 445 kts | 201° |
| 2026-04-26 13:52 | 33.76485 | 126.53426 | 34012 ft | 441 kts | 206° |
| 2026-04-26 13:53 | 33.70720 | 126.50922 | 34012 ft | 441 kts | 206° |
| 2026-04-26 13:53 | 33.64964 | 126.48430 | 34011 ft | 441 kts | 206° |
| 2026-04-26 13:54 | 33.59182 | 126.45929 | 34012 ft | 441 kts | 206° |
| 2026-04-26 13:54 | 33.53405 | 126.43430 | 34012 ft | 441 kts | 206° |
| 2026-04-26 13:55 | 33.45726 | 126.40116 | 34011 ft | 441 kts | 206° |
| 2026-04-26 13:56 | 33.36121 | 126.35989 | 34011 ft | 441 kts | 206° |
| 2026-04-26 13:56 | 33.30386 | 126.33518 | 34013 ft | 441 kts | 206° |
| 2026-04-26 13:57 | 33.24600 | 126.31012 | 34013 ft | 441 kts | 206° |
| 2026-04-26 13:57 | 33.18841 | 126.28539 | 34010 ft | 441 kts | 205° |
| 2026-04-26 13:58 | 33.13077 | 126.26074 | 34012 ft | 442 kts | 205° |
| 2026-04-26 13:58 | 33.07297 | 126.23605 | 34007 ft | 445 kts | 205° |
| 2026-04-26 13:59 | 33.01450 | 126.21105 | 34007 ft | 451 kts | 204° |
| 2026-04-26 13:59 | 32.95524 | 126.18559 | 34008 ft | 457 kts | 203° |
| 2026-04-26 14:00 | 32.83512 | 126.13426 | 34011 ft | 459 kts | 203° |
| 2026-04-26 14:01 | 32.77511 | 126.10869 | 34012 ft | 459 kts | 203° |
| 2026-04-26 14:01 | 32.71542 | 126.08321 | 34011 ft | 459 kts | 203° |
| 2026-04-26 14:02 | 32.65558 | 126.05767 | 34011 ft | 459 kts | 203° |
| 2026-04-26 14:02 | 32.59564 | 126.03212 | 34011 ft | 459 kts | 203° |
| 2026-04-26 14:03 | 32.53532 | 126.00645 | 34011 ft | 459 kts | 203° |
| 2026-04-26 14:03 | 32.47551 | 125.98105 | 34012 ft | 459 kts | 203° |
| 2026-04-26 14:04 | 32.41552 | 125.95561 | 34012 ft | 459 kts | 203° |
| 2026-04-26 14:04 | 32.35560 | 125.93024 | 34011 ft | 459 kts | 203° |
| 2026-04-26 14:05 | 32.29556 | 125.90488 | 34012 ft | 459 kts | 203° |
| 2026-04-26 14:05 | 32.23550 | 125.87952 | 34010 ft | 459 kts | 203° |
| 2026-04-26 14:06 | 32.17546 | 125.85423 | 34011 ft | 459 kts | 203° |
| 2026-04-26 14:06 | 32.11568 | 125.82908 | 34011 ft | 459 kts | 203° |
| 2026-04-26 14:07 | 32.05534 | 125.80371 | 34012 ft | 459 kts | 203° |
| 2026-04-26 14:07 | 31.99544 | 125.77858 | 34030 ft | 459 kts | 203° |
| 2026-04-26 14:08 | 31.93529 | 125.75327 | 34045 ft | 459 kts | 203° |
| 2026-04-26 14:08 | 31.87529 | 125.72809 | 34053 ft | 459 kts | 203° |
| 2026-04-26 14:09 | 31.81517 | 125.70298 | 34055 ft | 459 kts | 203° |
| 2026-04-26 14:09 | 31.75516 | 125.67786 | 34054 ft | 459 kts | 203° |
| 2026-04-26 14:10 | 31.69521 | 125.65277 | 34054 ft | 459 kts | 203° |
| 2026-04-26 14:10 | 31.63520 | 125.62766 | 34055 ft | 459 kts | 203° |
| 2026-04-26 14:11 | 31.54509 | 125.58997 | 34056 ft | 459 kts | 203° |
| 2026-04-26 14:11 | 31.48532 | 125.56500 | 34055 ft | 459 kts | 203° |
| 2026-04-26 14:12 | 31.42535 | 125.53993 | 34055 ft | 459 kts | 203° |
| 2026-04-26 14:12 | 31.36531 | 125.51483 | 34055 ft | 459 kts | 203° |
| 2026-04-26 14:13 | 31.27530 | 125.47726 | 34055 ft | 459 kts | 203° |
| 2026-04-26 14:14 | 31.21519 | 125.45221 | 34056 ft | 459 kts | 203° |
| 2026-04-26 14:14 | 31.15506 | 125.42718 | 34056 ft | 459 kts | 203° |
| 2026-04-26 14:15 | 31.09520 | 125.40230 | 34055 ft | 459 kts | 203° |
| 2026-04-26 14:15 | 31.03493 | 125.37727 | 34056 ft | 459 kts | 203° |
| 2026-04-26 14:16 | 30.97500 | 125.35236 | 34054 ft | 462 kts | 202° |
| 2026-04-26 14:16 | 30.91440 | 125.32700 | 34055 ft | 465 kts | 201° |
| 2026-04-26 14:17 | 30.85317 | 125.30156 | 34055 ft | 467 kts | 200° |
| 2026-04-26 14:17 | 30.79223 | 125.27653 | 34056 ft | 468 kts | 200° |
| 2026-04-26 14:18 | 30.73084 | 125.25130 | 34056 ft | 468 kts | 200° |
| 2026-04-26 14:18 | 30.66985 | 125.22620 | 34056 ft | 468 kts | 200° |
| 2026-04-26 14:19 | 30.60871 | 125.20106 | 34056 ft | 468 kts | 200° |
| 2026-04-26 14:19 | 30.54727 | 125.17586 | 34056 ft | 468 kts | 200° |
| 2026-04-26 14:20 | 30.48610 | 125.15078 | 34056 ft | 468 kts | 200° |
| 2026-04-26 14:20 | 30.42485 | 125.12568 | 34056 ft | 468 kts | 200° |
| 2026-04-26 14:21 | 30.36368 | 125.10063 | 34057 ft | 472 kts | 200° |
| 2026-04-26 14:21 | 30.30157 | 125.07525 | 34057 ft | 478 kts | 200° |
| 2026-04-26 14:22 | 30.23873 | 125.04956 | 34363 ft | 476 kts | 201° |
| 2026-04-26 14:22 | 30.20788 | 125.03690 | 34644 ft | 473 kts | 201° |
| 2026-04-26 14:22 | 30.17712 | 125.02424 | 34905 ft | 470 kts | 201° |
| 2026-04-26 14:22 | 30.14633 | 125.01153 | 35142 ft | 467 kts | 201° |
| 2026-04-26 14:23 | 30.11612 | 124.99902 | 35381 ft | 465 kts | 201° |
| 2026-04-26 14:23 | 30.08567 | 124.98638 | 35629 ft | 462 kts | 201° |
| 2026-04-26 14:23 | 30.05584 | 124.97396 | 35877 ft | 459 kts | 201° |
| 2026-04-26 14:23 | 30.02578 | 124.96141 | 36131 ft | 456 kts | 201° |
| 2026-04-26 14:24 | 29.99645 | 124.94912 | 36375 ft | 453 kts | 201° |
| 2026-04-26 14:24 | 29.96686 | 124.93668 | 36618 ft | 450 kts | 201° |
| 2026-04-26 14:24 | 29.93774 | 124.92440 | 36856 ft | 448 kts | 201° |
| 2026-04-26 14:24 | 29.90854 | 124.91205 | 37089 ft | 445 kts | 201° |
| 2026-04-26 14:25 | 29.87977 | 124.89986 | 37314 ft | 443 kts | 201° |
| 2026-04-26 14:25 | 29.85092 | 124.88773 | 37544 ft | 440 kts | 201° |
| 2026-04-26 14:25 | 29.82252 | 124.87588 | 37764 ft | 438 kts | 201° |
| 2026-04-26 14:25 | 29.79384 | 124.86401 | 37980 ft | 436 kts | 201° |
| 2026-04-26 14:26 | 29.76571 | 124.85248 | 38186 ft | 433 kts | 201° |
| 2026-04-26 14:26 | 29.73716 | 124.84087 | 38390 ft | 431 kts | 200° |
| 2026-04-26 14:26 | 29.70922 | 124.82962 | 38590 ft | 429 kts | 200° |
| 2026-04-26 14:26 | 29.68116 | 124.81842 | 38786 ft | 426 kts | 200° |
| 2026-04-26 14:27 | 29.65352 | 124.80749 | 38972 ft | 424 kts | 200° |
| 2026-04-26 14:27 | 29.62556 | 124.79653 | 39155 ft | 421 kts | 200° |
| 2026-04-26 14:27 | 29.59818 | 124.78590 | 39328 ft | 419 kts | 200° |
| 2026-04-26 14:27 | 29.57046 | 124.77522 | 39495 ft | 417 kts | 200° |
| 2026-04-26 14:28 | 29.54308 | 124.76479 | 39648 ft | 415 kts | 199° |
| 2026-04-26 14:28 | 29.51590 | 124.75452 | 39797 ft | 412 kts | 199° |
| 2026-04-26 14:28 | 29.48881 | 124.74438 | 39937 ft | 410 kts | 199° |
| 2026-04-26 14:28 | 29.46184 | 124.73438 | 40072 ft | 408 kts | 199° |
| 2026-04-26 14:29 | 29.43504 | 124.72453 | 40196 ft | 406 kts | 199° |
| 2026-04-26 14:29 | 29.40829 | 124.71480 | 40317 ft | 404 kts | 199° |
| 2026-04-26 14:29 | 29.38135 | 124.70509 | 40435 ft | 402 kts | 199° |
| 2026-04-26 14:29 | 29.35474 | 124.69560 | 40548 ft | 400 kts | 199° |
| 2026-04-26 14:30 | 29.32844 | 124.68632 | 40654 ft | 398 kts | 198° |
| 2026-04-26 14:30 | 29.27588 | 124.66805 | 40839 ft | 395 kts | 198° |
| 2026-04-26 14:31 | 29.22340 | 124.65018 | 41004 ft | 391 kts | 198° |
| 2026-04-26 14:31 | 29.17195 | 124.63304 | 41157 ft | 387 kts | 197° |
| 2026-04-26 14:32 | 29.12014 | 124.61615 | 41161 ft | 388 kts | 197° |
| 2026-04-26 14:32 | 29.06813 | 124.59954 | 41076 ft | 391 kts | 197° |
| 2026-04-26 14:33 | 29.01570 | 124.58315 | 41059 ft | 392 kts | 196° |
| 2026-04-26 14:33 | 28.96324 | 124.56709 | 41089 ft | 392 kts | 195° |
| 2026-04-26 14:34 | 28.91094 | 124.55145 | 41149 ft | 391 kts | 195° |
| 2026-04-26 14:34 | 28.85831 | 124.53620 | 41233 ft | 389 kts | 194° |
| 2026-04-26 14:35 | 28.80574 | 124.52174 | 41241 ft | 389 kts | 194° |
| 2026-04-26 14:35 | 28.75294 | 124.50800 | 41181 ft | 392 kts | 193° |
| 2026-04-26 14:36 | 28.69988 | 124.49496 | 41184 ft | 392 kts | 193° |
| 2026-04-26 14:36 | 28.64668 | 124.48265 | 41226 ft | 392 kts | 192° |
| 2026-04-26 14:37 | 28.59338 | 124.47108 | 41298 ft | 390 kts | 191° |
| 2026-04-26 14:37 | 28.54022 | 124.46029 | 41320 ft | 390 kts | 191° |
| 2026-04-26 14:38 | 28.48667 | 124.45017 | 41282 ft | 391 kts | 190° |
| 2026-04-26 14:38 | 28.43306 | 124.44080 | 41292 ft | 391 kts | 189° |
| 2026-04-26 14:39 | 28.37929 | 124.43214 | 41337 ft | 391 kts | 188° |
| 2026-04-26 14:39 | 28.32557 | 124.42425 | 41368 ft | 390 kts | 188° |
| 2026-04-26 14:40 | 28.27218 | 124.41531 | 41354 ft | 391 kts | 192° |
| 2026-04-26 14:40 | 28.21963 | 124.39998 | 41167 ft | 391 kts | 198° |
| 2026-04-26 14:40 | 28.19409 | 124.38898 | 40435 ft | 400 kts | 209° |
| 2026-04-26 14:41 | 28.17105 | 124.37112 | 39358 ft | 413 kts | 224° |
| 2026-04-26 14:41 | 28.15256 | 124.34609 | 38149 ft | 428 kts | 239° |
| 2026-04-26 14:41 | 28.13982 | 124.31504 | 36859 ft | 444 kts | 250° |
| 2026-04-26 14:41 | 28.13056 | 124.28150 | 35720 ft | 455 kts | 253° |
| 2026-04-26 14:42 | 28.12159 | 124.24725 | 34871 ft | 458 kts | 251° |
| 2026-04-26 14:42 | 28.11092 | 124.21333 | 34321 ft | 461 kts | 249° |
| 2026-04-26 14:42 | 28.09954 | 124.17927 | 34050 ft | 462 kts | 249° |
| 2026-04-26 14:43 | 28.07675 | 124.11126 | 34021 ft | 464 kts | 249° |
| 2026-04-26 14:43 | 28.05411 | 124.04294 | 34016 ft | 464 kts | 249° |
| 2026-04-26 14:44 | 28.03164 | 123.97482 | 34014 ft | 464 kts | 249° |
| 2026-04-26 14:44 | 28.00899 | 123.90623 | 34014 ft | 464 kts | 249° |
| 2026-04-26 14:45 | 27.98649 | 123.83821 | 34014 ft | 464 kts | 249° |
| 2026-04-26 14:45 | 27.96213 | 123.77064 | 34014 ft | 463 kts | 243° |
| 2026-04-26 14:46 | 27.92867 | 123.70898 | 34015 ft | 464 kts | 233° |
| 2026-04-26 14:46 | 27.88569 | 123.65492 | 34013 ft | 463 kts | 223° |
| 2026-04-26 14:47 | 27.83492 | 123.60988 | 34265 ft | 462 kts | 216° |
| 2026-04-26 14:47 | 27.80896 | 123.58897 | 34639 ft | 458 kts | 216° |
| 2026-04-26 14:47 | 27.78330 | 123.56835 | 34926 ft | 455 kts | 216° |
| 2026-04-26 14:47 | 27.75761 | 123.54767 | 35140 ft | 455 kts | 216° |
| 2026-04-26 14:48 | 27.73179 | 123.52683 | 35327 ft | 454 kts | 216° |
| 2026-04-26 14:48 | 27.70649 | 123.50635 | 35497 ft | 454 kts | 216° |
| 2026-04-26 14:48 | 27.68081 | 123.48557 | 35669 ft | 454 kts | 216° |
| 2026-04-26 14:48 | 27.65518 | 123.46483 | 35845 ft | 453 kts | 216° |
| 2026-04-26 14:49 | 27.62942 | 123.44398 | 35993 ft | 453 kts | 216° |
| 2026-04-26 14:49 | 27.57845 | 123.40275 | 36011 ft | 454 kts | 216° |
| 2026-04-26 14:50 | 27.52727 | 123.36139 | 36015 ft | 453 kts | 216° |
| 2026-04-26 14:50 | 27.47618 | 123.31998 | 36015 ft | 453 kts | 216° |
| 2026-04-26 14:51 | 27.42484 | 123.27835 | 36015 ft | 454 kts | 216° |
| 2026-04-26 14:51 | 27.37379 | 123.23715 | 36015 ft | 454 kts | 216° |
| 2026-04-26 14:52 | 27.32246 | 123.19586 | 36015 ft | 453 kts | 216° |
| 2026-04-26 14:52 | 27.27108 | 123.15458 | 36016 ft | 458 kts | 216° |
| 2026-04-26 14:53 | 27.21930 | 123.11304 | 36015 ft | 459 kts | 216° |
| 2026-04-26 14:53 | 27.16734 | 123.07137 | 36015 ft | 460 kts | 215° |
| 2026-04-26 14:54 | 27.11541 | 123.02980 | 36014 ft | 461 kts | 215° |
| 2026-04-26 14:54 | 27.06325 | 122.98813 | 36014 ft | 463 kts | 215° |
| 2026-04-26 14:55 | 27.01058 | 122.94619 | 36015 ft | 464 kts | 214° |
| 2026-04-26 14:55 | 26.95824 | 122.90456 | 36016 ft | 463 kts | 214° |
| 2026-04-26 14:56 | 26.90611 | 122.86316 | 36018 ft | 458 kts | 214° |
| 2026-04-26 14:56 | 26.85348 | 122.82166 | 36016 ft | 452 kts | 214° |
| 2026-04-26 14:57 | 26.80149 | 122.78058 | 36015 ft | 451 kts | 214° |
| 2026-04-26 14:57 | 26.74920 | 122.73917 | 36015 ft | 451 kts | 214° |
| 2026-04-26 14:58 | 26.69719 | 122.69804 | 36015 ft | 451 kts | 214° |
| 2026-04-26 14:58 | 26.64500 | 122.65686 | 36015 ft | 451 kts | 214° |
| 2026-04-26 14:59 | 26.59287 | 122.61578 | 36015 ft | 451 kts | 214° |
| 2026-04-26 14:59 | 26.54088 | 122.57481 | 36015 ft | 451 kts | 214° |
| 2026-04-26 15:00 | 26.48898 | 122.53394 | 36015 ft | 451 kts | 214° |
| 2026-04-26 15:00 | 26.43736 | 122.49333 | 36015 ft | 451 kts | 214° |
| 2026-04-26 15:01 | 26.38613 | 122.45306 | 36015 ft | 451 kts | 214° |
| 2026-04-26 15:01 | 26.33492 | 122.41286 | 35761 ft | 446 kts | 214° |
| 2026-04-26 15:01 | 26.30978 | 122.39313 | 35090 ft | 447 kts | 214° |
| 2026-04-26 15:02 | 26.28426 | 122.37311 | 34437 ft | 451 kts | 214° |
| 2026-04-26 15:02 | 26.25886 | 122.35320 | 34092 ft | 454 kts | 214° |
| 2026-04-26 15:02 | 26.23299 | 122.33286 | 34024 ft | 455 kts | 214° |
| 2026-04-26 15:03 | 26.18149 | 122.29230 | 34015 ft | 456 kts | 214° |
| 2026-04-26 15:03 | 26.12954 | 122.25171 | 34014 ft | 456 kts | 214° |
| 2026-04-26 15:04 | 26.07752 | 122.21178 | 34014 ft | 456 kts | 214° |
| 2026-04-26 15:04 | 26.02529 | 122.17185 | 34013 ft | 456 kts | 214° |
| 2026-04-26 15:05 | 25.97341 | 122.13221 | 34013 ft | 456 kts | 214° |
| 2026-04-26 15:05 | 25.92143 | 122.09251 | 34013 ft | 456 kts | 214° |
| 2026-04-26 15:06 | 25.86890 | 122.05251 | 34014 ft | 456 kts | 213° |
| 2026-04-26 15:06 | 25.81694 | 122.01307 | 34014 ft | 456 kts | 214° |
| 2026-04-26 15:07 | 25.73843 | 121.95332 | 34013 ft | 456 kts | 214° |
| 2026-04-26 15:07 | 25.68639 | 121.91344 | 34015 ft | 456 kts | 214° |
| 2026-04-26 15:08 | 25.63464 | 121.87353 | 34028 ft | 456 kts | 214° |
| 2026-04-26 15:08 | 25.58258 | 121.83348 | 34038 ft | 456 kts | 214° |
| 2026-04-26 15:09 | 25.53077 | 121.79365 | 34042 ft | 456 kts | 214° |
| 2026-04-26 15:09 | 25.47859 | 121.75356 | 34045 ft | 456 kts | 214° |
| 2026-04-26 15:10 | 25.43544 | 121.72042 | 34045 ft | 456 kts | 214° |
| 2026-04-26 15:10 | 25.37489 | 121.67396 | 34045 ft | 456 kts | 214° |
| 2026-04-26 15:11 | 25.32269 | 121.63394 | 34045 ft | 456 kts | 214° |
| 2026-04-26 15:11 | 25.27088 | 121.59427 | 34045 ft | 456 kts | 214° |
| 2026-04-26 15:12 | 25.21925 | 121.55389 | 34045 ft | 456 kts | 217° |
| 2026-04-26 15:12 | 25.17075 | 121.50854 | 34046 ft | 456 kts | 223° |
| 2026-04-26 15:13 | 25.12682 | 121.45784 | 34046 ft | 457 kts | 229° |
| 2026-04-26 15:13 | 25.08584 | 121.40468 | 34045 ft | 458 kts | 229° |
| 2026-04-26 15:14 | 25.04448 | 121.35095 | 34045 ft | 461 kts | 229° |
| 2026-04-26 15:14 | 25.00281 | 121.29677 | 34044 ft | 463 kts | 228° |
| 2026-04-26 15:15 | 24.96124 | 121.24290 | 34044 ft | 465 kts | 228° |
| 2026-04-26 15:15 | 24.91913 | 121.18855 | 34045 ft | 466 kts | 228° |
| 2026-04-26 15:16 | 24.87625 | 121.13522 | 34045 ft | 465 kts | 224° |
| 2026-04-26 15:16 | 24.82914 | 121.08696 | 34045 ft | 462 kts | 218° |
| 2026-04-26 15:17 | 24.78682 | 121.05135 | 34046 ft | 460 kts | 213° |
| 2026-04-26 15:17 | 24.72385 | 121.00846 | 34046 ft | 457 kts | 209° |
| 2026-04-26 15:18 | 24.66917 | 120.97370 | 34046 ft | 456 kts | 209° |
| 2026-04-26 15:18 | 24.61455 | 120.93900 | 34045 ft | 455 kts | 209° |
| 2026-04-26 15:19 | 24.55999 | 120.90433 | 34045 ft | 454 kts | 209° |
| 2026-04-26 15:19 | 24.50532 | 120.86961 | 34045 ft | 454 kts | 209° |
| 2026-04-26 15:20 | 24.45087 | 120.83505 | 34045 ft | 454 kts | 209° |
| 2026-04-26 15:20 | 24.39592 | 120.80024 | 34045 ft | 454 kts | 209° |
| 2026-04-26 15:21 | 24.34070 | 120.76673 | 34045 ft | 454 kts | 207° |
| 2026-04-26 15:21 | 24.28550 | 120.73389 | 34045 ft | 454 kts | 207° |
| 2026-04-26 15:22 | 24.23020 | 120.70089 | 34045 ft | 454 kts | 207° |
| 2026-04-26 15:22 | 24.17486 | 120.66783 | 34045 ft | 454 kts | 207° |
| 2026-04-26 15:23 | 24.11925 | 120.63461 | 34022 ft | 454 kts | 207° |
| 2026-04-26 15:23 | 24.06408 | 120.60169 | 34000 ft | 455 kts | 207° |
| 2026-04-26 15:24 | 24.00862 | 120.56860 | 33990 ft | 455 kts | 207° |
| 2026-04-26 15:24 | 23.95313 | 120.53553 | 33986 ft | 455 kts | 207° |
| 2026-04-26 15:25 | 23.90678 | 120.50793 | 33986 ft | 455 kts | 207° |
| 2026-04-26 15:25 | 23.84248 | 120.47015 | 33655 ft | 444 kts | 206° |
| 2026-04-26 15:26 | 23.81536 | 120.45493 | 33119 ft | 440 kts | 206° |
| 2026-04-26 15:26 | 23.78813 | 120.43973 | 32479 ft | 438 kts | 206° |
| 2026-04-26 15:26 | 23.76124 | 120.42471 | 31799 ft | 438 kts | 206° |
| 2026-04-26 15:26 | 23.73415 | 120.40955 | 31084 ft | 439 kts | 206° |
| 2026-04-26 15:27 | 23.70687 | 120.39424 | 30341 ft | 440 kts | 206° |
| 2026-04-26 15:27 | 23.67962 | 120.37893 | 29584 ft | 440 kts | 206° |
| 2026-04-26 15:27 | 23.65268 | 120.36379 | 28837 ft | 441 kts | 206° |
| 2026-04-26 15:27 | 23.62559 | 120.34856 | 28347 ft | 434 kts | 206° |
| 2026-04-26 15:28 | 23.59864 | 120.33331 | 27863 ft | 428 kts | 206° |
| 2026-04-26 15:28 | 23.57253 | 120.31850 | 27389 ft | 422 kts | 206° |
| 2026-04-26 15:28 | 23.54691 | 120.30401 | 26917 ft | 417 kts | 206° |
| 2026-04-26 15:28 | 23.52125 | 120.28956 | 26442 ft | 411 kts | 205° |
| 2026-04-26 15:29 | 23.49622 | 120.27550 | 25975 ft | 407 kts | 205° |
| 2026-04-26 15:29 | 23.47132 | 120.26153 | 25507 ft | 402 kts | 205° |
| 2026-04-26 15:29 | 23.42184 | 120.23383 | 24563 ft | 394 kts | 205° |
| 2026-04-26 15:30 | 23.37344 | 120.20697 | 23621 ft | 388 kts | 204° |
| 2026-04-26 15:30 | 23.34920 | 120.19529 | 23132 ft | 385 kts | 200° |
| 2026-04-26 15:30 | 23.32400 | 120.18515 | 22648 ft | 382 kts | 197° |
| 2026-04-26 15:31 | 23.29893 | 120.17691 | 22187 ft | 379 kts | 194° |
| 2026-04-26 15:31 | 23.24866 | 120.16182 | 21303 ft | 373 kts | 194° |
| 2026-04-26 15:31 | 23.22387 | 120.15440 | 20856 ft | 370 kts | 194° |
| 2026-04-26 15:32 | 23.18253 | 120.14201 | 20117 ft | 366 kts | 194° |
| 2026-04-26 15:32 | 23.15008 | 120.13228 | 19542 ft | 363 kts | 194° |
| 2026-04-26 15:32 | 23.12554 | 120.12492 | 19106 ft | 361 kts | 194° |
| 2026-04-26 15:33 | 23.10155 | 120.11772 | 18677 ft | 359 kts | 194° |
| 2026-04-26 15:33 | 23.07776 | 120.11059 | 18250 ft | 357 kts | 194° |
| 2026-04-26 15:33 | 23.05386 | 120.10342 | 17818 ft | 356 kts | 194° |
| 2026-04-26 15:33 | 23.03005 | 120.09629 | 17388 ft | 354 kts | 193° |
| 2026-04-26 15:34 | 23.00644 | 120.08920 | 16958 ft | 352 kts | 193° |
| 2026-04-26 15:34 | 22.98297 | 120.08216 | 16529 ft | 351 kts | 193° |
| 2026-04-26 15:34 | 22.95941 | 120.07510 | 16098 ft | 350 kts | 193° |
| 2026-04-26 15:34 | 22.93601 | 120.06810 | 15665 ft | 349 kts | 192° |
| 2026-04-26 15:35 | 22.91270 | 120.06119 | 15227 ft | 349 kts | 191° |
| 2026-04-26 15:35 | 22.88996 | 120.05783 | 14730 ft | 347 kts | 177° |
| 2026-04-26 15:35 | 22.86619 | 120.06074 | 14217 ft | 343 kts | 162° |
| 2026-04-26 15:35 | 22.84407 | 120.06905 | 13783 ft | 338 kts | 154° |
| 2026-04-26 15:36 | 22.82228 | 120.07891 | 13394 ft | 336 kts | 153° |
| 2026-04-26 15:36 | 22.80085 | 120.08878 | 12987 ft | 334 kts | 153° |
| 2026-04-26 15:36 | 22.77964 | 120.09847 | 12573 ft | 332 kts | 153° |
| 2026-04-26 15:36 | 22.75847 | 120.10805 | 12155 ft | 331 kts | 153° |
| 2026-04-26 15:37 | 22.73711 | 120.11764 | 11730 ft | 330 kts | 153° |
| 2026-04-26 15:37 | 22.71585 | 120.12716 | 11299 ft | 329 kts | 154° |
| 2026-04-26 15:37 | 22.69487 | 120.13654 | 10874 ft | 328 kts | 154° |
| 2026-04-26 15:37 | 22.67371 | 120.14597 | 10454 ft | 326 kts | 154° |
| 2026-04-26 15:38 | 22.65319 | 120.15508 | 10322 ft | 313 kts | 154° |
| 2026-04-26 15:38 | 22.63347 | 120.16380 | 10219 ft | 300 kts | 154° |
| 2026-04-26 15:38 | 22.61452 | 120.17220 | 10127 ft | 288 kts | 154° |
| 2026-04-26 15:38 | 22.59610 | 120.18037 | 10047 ft | 283 kts | 154° |
| 2026-04-26 15:39 | 22.57815 | 120.18837 | 9818 ft | 283 kts | 154° |
| 2026-04-26 15:39 | 22.55993 | 120.19649 | 9483 ft | 282 kts | 154° |
| 2026-04-26 15:39 | 22.54198 | 120.20449 | 9159 ft | 281 kts | 154° |
| 2026-04-26 15:39 | 22.53008 | 120.21058 | 8927 ft | 278 kts | 146° |
| 2026-04-26 15:40 | 22.51059 | 120.22767 | 8501 ft | 271 kts | 128° |
| 2026-04-26 15:40 | 22.49851 | 120.24320 | 8189 ft | 269 kts | 125° |
| 2026-04-26 15:40 | 22.48684 | 120.25906 | 7873 ft | 269 kts | 125° |
| 2026-04-26 15:40 | 22.47518 | 120.27486 | 7562 ft | 268 kts | 125° |
| 2026-04-26 15:41 | 22.46347 | 120.29054 | 7257 ft | 267 kts | 126° |
| 2026-04-26 15:41 | 22.45260 | 120.30654 | 6927 ft | 266 kts | 116° |
| 2026-04-26 15:41 | 22.44579 | 120.32503 | 6603 ft | 262 kts | 99° |
| 2026-04-26 15:41 | 22.44287 | 120.34438 | 6308 ft | 259 kts | 94° |
| 2026-04-26 15:42 | 22.44082 | 120.36355 | 6013 ft | 258 kts | 93° |
| 2026-04-26 15:42 | 22.43879 | 120.38287 | 5858 ft | 249 kts | 94° |
| 2026-04-26 15:42 | 22.43678 | 120.40073 | 5819 ft | 235 kts | 94° |
| 2026-04-26 15:42 | 22.43476 | 120.41816 | 5771 ft | 230 kts | 94° |
| 2026-04-26 15:43 | 22.43285 | 120.43525 | 5705 ft | 229 kts | 89° |
| 2026-04-26 15:43 | 22.43414 | 120.45211 | 5402 ft | 223 kts | 71° |
| 2026-04-26 15:43 | 22.44465 | 120.48323 | 4885 ft | 221 kts | 65° |
| 2026-04-26 15:44 | 22.45036 | 120.49880 | 4630 ft | 222 kts | 65° |
| 2026-04-26 15:44 | 22.46140 | 120.52984 | 4131 ft | 219 kts | 66° |
| 2026-04-26 15:44 | 22.46763 | 120.54493 | 3958 ft | 217 kts | 50° |
| 2026-04-26 15:45 | 22.49363 | 120.55700 | 4009 ft | 211 kts | 359° |
| 2026-04-26 15:45 | 22.50820 | 120.55720 | 4001 ft | 209 kts | 358° |
| 2026-04-26 15:46 | 22.53756 | 120.55774 | 3711 ft | 211 kts | 359° |
| 2026-04-26 15:46 | 22.55223 | 120.55761 | 3412 ft | 210 kts | 348° |
| 2026-04-26 15:46 | 22.56475 | 120.55058 | 3099 ft | 205 kts | 311° |
| 2026-04-26 15:46 | 22.56958 | 120.54211 | 3071 ft | 193 kts | 292° |
| 2026-04-26 15:47 | 22.57186 | 120.52367 | 2816 ft | 177 kts | 272° |
| 2026-04-26 15:47 | 22.57231 | 120.49889 | 2539 ft | 157 kts | 272° |
| 2026-04-26 15:47 | 22.57254 | 120.48765 | 2370 ft | 143 kts | 273° |
| 2026-04-26 15:48 | 22.57283 | 120.47701 | 2249 ft | 142 kts | 274° |
| 2026-04-26 15:48 | 22.57319 | 120.46626 | 1969 ft | 140 kts | 272° |
| 2026-04-26 15:48 | 22.57351 | 120.45567 | 1776 ft | 140 kts | 273° |
| 2026-04-26 15:48 | 22.57385 | 120.44520 | 1595 ft | 140 kts | 272° |
| 2026-04-26 15:49 | 22.57419 | 120.43462 | 1397 ft | 140 kts | 274° |
| 2026-04-26 15:49 | 22.57457 | 120.42419 | 1215 ft | 139 kts | 272° |
| 2026-04-26 15:49 | 22.57489 | 120.41368 | 1023 ft | 139 kts | 272° |
| 2026-04-26 15:49 | 22.57527 | 120.40330 | 842 ft | 138 kts | 272° |
| 2026-04-26 15:50 | 22.57580 | 120.39282 | 653 ft | 138 kts | 273° |
| 2026-04-26 15:50 | 22.57630 | 120.38256 | 467 ft | 138 kts | 271° |
| 2026-04-26 15:50 | 22.57653 | 120.37212 | 282 ft | 138 kts | 270° |
| 2026-04-26 15:50 | 22.57673 | 120.36169 | 99 ft | 137 kts | 270° |
| 2026-04-26 15:51 | 22.57703 | 120.35156 | 40 ft | 129 kts | 272° |
| 2026-04-26 15:51 | 22.57728 | 120.34358 | 40 ft | 81 kts | 272° |
| 2026-04-26 15:51 | 22.57741 | 120.33931 | 40 ft | 34 kts | 272° |
| 2026-04-26 15:51 | 22.57748 | 120.33691 | 40 ft | 30 kts | 271° |
| 2026-04-26 15:52 | 22.57752 | 120.33572 | 40 ft | 8 kts | 273° |
| 2026-04-26 15:52 | 22.57734 | 120.33511 | 40 ft | 9 kts | 212° |
| 2026-04-26 15:52 | 22.57669 | 120.33498 | 40 ft | 9 kts | 178° |
| 2026-04-26 15:52 | 22.57622 | 120.33505 | 40 ft | 10 kts | 160° |
| 2026-04-26 15:53 | 22.57543 | 120.33572 | 40 ft | 11 kts | 136° |
| 2026-04-26 15:53 | 22.57486 | 120.33631 | 40 ft | 11 kts | 136° |
| 2026-04-26 15:53 | 22.57438 | 120.33680 | 40 ft | 9 kts | 132° |
| 2026-04-26 15:53 | 22.57420 | 120.33743 | 40 ft | 7 kts | 93° |
| 2026-04-26 15:54 | 22.57418 | 120.33800 | 40 ft | 7 kts | 91° |
| 2026-04-26 15:54 | 22.57416 | 120.33863 | 40 ft | 8 kts | 91° |
| 2026-04-26 15:54 | 22.57414 | 120.33932 | 40 ft | 9 kts | 91° |
| 2026-04-26 15:54 | 22.57412 | 120.33997 | 40 ft | 8 kts | 92° |
| 2026-04-26 15:55 | 22.57404 | 120.34041 | 40 ft | 6 kts | 127° |
| 2026-04-26 15:55 | 22.57361 | 120.34054 | 40 ft | 7 kts | 181° |
| 2026-04-26 15:55 | 22.57327 | 120.34084 | 40 ft | 7 kts | 108° |
| 2026-04-26 15:55 | 22.57324 | 120.34117 | 40 ft | 2 kts | 93° |
| 2026-04-26 15:56 | 22.57323 | 120.34129 | 40 ft | 0 kts | 93° |